Time;durP1;ratioP1;P1;durP2;ratioP2;P2;SDS_P1;SDS_P2;PMS_P1;PMS_P2;Temp;Humidity;BMP_temperature;BMP_pressure;BME280_temperature;BME280_humidity;BME280_pressure;Samples;Min_cycle;Max_cycle;Signal;HPM_P1;HPM_P2
2023/10/15 00:01:29;;;;;;;0.00;0.00;;;9.30;99.90;;;;;;5003444;28;20044;-66
2023/10/15 00:03:55;;;;;;;0.13;0.13;;;9.30;99.90;;;;;;5004549;28;20152;-65
2023/10/15 00:06:21;;;;;;;0.10;0.10;;;9.30;99.90;;;;;;5005659;28;20048;-66
2023/10/15 00:08:46;;;;;;;0.00;0.00;;;9.40;99.90;;;;;;5017062;28;20112;-66
2023/10/15 00:11:18;;;;;;;0.10;0.10;;;9.40;99.90;;;;;;4998289;28;20405;-66
2023/10/15 00:13:44;;;;;;;0.30;0.30;;;9.50;99.90;;;;;;4998960;28;20124;-66
2023/10/15 00:16:19;;;;;;;0.00;0.00;;;9.50;99.90;;;;;;4996340;28;20041;-66
2023/10/15 00:18:45;;;;;;;0.00;0.00;;;9.50;99.90;;;;;;5007569;28;20390;-66
2023/10/15 00:21:13;;;;;;;0.10;0.10;;;9.50;99.90;;;;;;5003013;28;20133;-66
2023/10/15 00:23:44;;;;;;;0.00;0.00;;;9.40;99.90;;;;;;4996871;28;20125;-66
2023/10/15 00:26:14;;;;;;;1.63;1.25;;;9.40;99.90;;;;;;5003509;28;20057;-66
2023/10/15 00:28:40;;;;;;;0.00;0.00;;;9.50;99.90;;;;;;4998928;28;20101;-66
2023/10/15 00:31:13;;;;;;;0.00;0.00;;;9.50;99.90;;;;;;5005999;28;20046;-66
2023/10/15 00:33:42;;;;;;;0.00;0.00;;;9.70;99.90;;;;;;5013766;28;20057;-66
2023/10/15 00:36:09;;;;;;;0.10;0.10;;;9.70;99.90;;;;;;4998603;28;20046;-66
2023/10/15 00:38:36;;;;;;;0.10;0.10;;;9.70;99.90;;;;;;5006006;28;20132;-66
2023/10/15 00:41:08;;;;;;;0.10;0.10;;;9.70;99.90;;;;;;5011372;28;20571;-66
2023/10/15 00:43:34;;;;;;;0.00;0.00;;;9.60;99.90;;;;;;5009841;28;20077;-66
2023/10/15 00:46:03;;;;;;;0.00;0.00;;;9.50;99.90;;;;;;5004786;28;20052;-66
2023/10/15 00:48:33;;;;;;;0.00;0.00;;;9.50;99.90;;;;;;5013499;28;20509;-66
2023/10/15 00:51:01;;;;;;;0.10;0.10;;;9.40;99.90;;;;;;5008447;28;20508;-66
2023/10/15 00:53:28;;;;;;;0.75;0.75;;;9.30;99.90;;;;;;5004261;28;20038;-66
2023/10/15 00:55:55;;;;;;;9.95;1.08;;;9.30;99.90;;;;;;5012020;28;20061;-66
2023/10/15 00:58:54;;;;;;;0.10;0.10;;;9.10;99.90;;;;;;5008614;28;20046;-66
2023/10/15 01:01:26;;;;;;;0.40;0.40;;;9.20;99.90;;;;;;4995535;28;20129;-66
2023/10/15 01:04:09;;;;;;;0.10;0.10;;;9.10;99.90;;;;;;5007570;28;20486;-66
2023/10/15 01:06:36;;;;;;;0.10;0.10;;;9.10;99.90;;;;;;5008063;28;20117;-66
2023/10/15 01:09:38;;;;;;;0.00;0.00;;;9.00;99.90;;;;;;5002067;28;20041;-66
2023/10/15 01:12:03;;;;;;;0.25;0.25;;;9.00;99.90;;;;;;4996747;28;20050;-66
2023/10/15 01:14:32;;;;;;;0.00;0.00;;;9.10;99.90;;;;;;5006172;28;20131;-66
2023/10/15 01:17:02;;;;;;;0.00;0.00;;;9.10;99.90;;;;;;5004226;28;20048;-66
2023/10/15 01:19:32;;;;;;;0.00;0.00;;;9.10;99.90;;;;;;5000407;28;20490;-66
2023/10/15 01:22:10;;;;;;;0.00;0.00;;;9.10;99.90;;;;;;5002950;28;20063;-66
2023/10/15 01:24:37;;;;;;;0.57;0.57;;;9.20;99.90;;;;;;5003073;28;20054;-66
2023/10/15 01:27:09;;;;;;;0.10;0.10;;;9.20;99.90;;;;;;4998476;28;20056;-66
2023/10/15 01:29:48;;;;;;;0.10;0.10;;;9.20;99.90;;;;;;5001206;28;20058;-66
2023/10/15 01:32:16;;;;;;;0.10;0.10;;;9.30;99.90;;;;;;5001433;28;20113;-66
2023/10/15 01:34:45;;;;;;;0.10;0.10;;;9.30;99.90;;;;;;5016799;28;20092;-66
2023/10/15 01:39:51;;;;;;;0.40;0.40;;;9.30;99.90;;;;;;5005035;28;20037;-66
2023/10/15 01:45:09;;;;;;;0.55;0.55;;;9.40;99.90;;;;;;5007641;28;20064;-66
2023/10/15 01:47:36;;;;;;;10.88;1.65;;;9.40;99.90;;;;;;4999121;28;20038;-66
2023/10/15 01:50:09;;;;;;;0.00;0.00;;;9.30;99.90;;;;;;5005666;28;20112;-65
2023/10/15 01:52:44;;;;;;;0.00;0.00;;;9.30;99.90;;;;;;5002696;28;20049;-66
2023/10/15 01:55:12;;;;;;;0.10;0.10;;;9.10;99.90;;;;;;4996390;28;20137;-65
2023/10/15 01:57:39;;;;;;;0.00;0.00;;;9.10;99.90;;;;;;5008584;28;20805;-66
2023/10/15 02:00:13;;;;;;;0.20;0.20;;;9.00;99.90;;;;;;5001905;28;20058;-66
2023/10/15 02:02:41;;;;;;;0.40;0.40;;;9.00;99.90;;;;;;5003479;28;20487;-66
2023/10/15 02:05:16;;;;;;;0.00;0.00;;;8.90;99.90;;;;;;4999061;28;20506;-66
2023/10/15 02:07:43;;;;;;;0.10;0.10;;;8.80;99.90;;;;;;5005097;28;20073;-65
2023/10/15 02:10:12;;;;;;;0.10;0.10;;;8.70;99.90;;;;;;5001840;28;20038;-65
2023/10/15 02:12:38;;;;;;;0.10;0.10;;;8.60;99.90;;;;;;5003650;28;20046;-65
2023/10/15 02:15:14;;;;;;;0.10;0.10;;;8.60;99.90;;;;;;5007409;28;20426;-65
2023/10/15 02:17:42;;;;;;;0.00;0.00;;;8.50;99.90;;;;;;5002514;28;20046;-65
2023/10/15 02:20:11;;;;;;;0.03;0.03;;;8.50;99.90;;;;;;5002911;28;20053;-65
2023/10/15 02:22:38;;;;;;;0.10;0.10;;;8.60;99.90;;;;;;4998396;28;20050;-65
2023/10/15 02:25:04;;;;;;;0.00;0.00;;;8.60;99.90;;;;;;4996527;28;20135;-66
2023/10/15 02:27:35;;;;;;;0.00;0.00;;;8.70;99.90;;;;;;5001932;28;20522;-66
2023/10/15 02:30:01;;;;;;;0.00;0.00;;;8.60;99.90;;;;;;4998280;28;20414;-66
2023/10/15 02:34:54;;;;;;;0.00;0.00;;;8.60;99.90;;;;;;5005761;28;20573;-66
2023/10/15 02:37:26;;;;;;;0.10;0.10;;;8.60;99.90;;;;;;5005294;28;20048;-66
2023/10/15 02:39:51;;;;;;;0.00;0.00;;;8.50;99.90;;;;;;5003627;28;20049;-65
2023/10/15 02:42:21;;;;;;;0.00;0.00;;;8.50;99.90;;;;;;4999345;28;20054;-66
2023/10/15 02:44:53;;;;;;;0.10;0.10;;;8.40;99.90;;;;;;5002404;28;20046;-66
2023/10/15 02:50:03;;;;;;;0.10;0.10;;;8.40;99.90;;;;;;5002191;28;20451;-66
2023/10/15 02:52:35;;;;;;;0.10;0.10;;;8.30;99.90;;;;;;5001721;28;20077;-66
2023/10/15 02:55:10;;;;;;;0.10;0.10;;;8.20;99.90;;;;;;5005786;28;20050;-65
2023/10/15 02:57:39;;;;;;;0.10;0.10;;;8.20;99.90;;;;;;5000362;28;20053;-65
2023/10/15 03:02:53;;;;;;;0.10;0.10;;;8.10;99.90;;;;;;5000386;28;20517;-66
2023/10/15 03:05:25;;;;;;;0.00;0.00;;;8.10;99.90;;;;;;5004322;28;20046;-66
2023/10/15 03:07:51;;;;;;;0.30;0.30;;;8.10;99.90;;;;;;5006251;28;20034;-66
2023/10/15 03:10:21;;;;;;;0.10;0.10;;;8.20;99.90;;;;;;4999963;28;20050;-66
2023/10/15 03:12:48;;;;;;;0.10;0.10;;;8.20;99.90;;;;;;5001451;28;20045;-66
2023/10/15 03:15:14;;;;;;;0.10;0.10;;;8.30;99.90;;;;;;4994260;28;20054;-66
2023/10/15 03:17:42;;;;;;;0.00;0.00;;;8.40;99.90;;;;;;5005979;28;20038;-65
2023/10/15 03:22:45;;;;;;;0.00;0.00;;;8.50;99.90;;;;;;5000137;28;20049;-66
2023/10/15 03:25:14;;;;;;;0.10;0.10;;;8.50;99.90;;;;;;4998025;28;20050;-65
2023/10/15 03:27:41;;;;;;;0.10;0.10;;;8.50;99.90;;;;;;5005047;28;20046;-65
2023/10/15 03:30:10;;;;;;;0.10;0.10;;;8.50;99.90;;;;;;5000343;28;20073;-65
2023/10/15 03:32:45;;;;;;;0.10;0.10;;;8.50;99.90;;;;;;4995404;28;20043;-65
2023/10/15 03:35:18;;;;;;;0.10;0.10;;;8.40;99.90;;;;;;5021008;28;20134;-65
2023/10/15 03:37:47;;;;;;;0.10;0.10;;;8.40;99.90;;;;;;5002040;28;20117;-65
2023/10/15 03:43:06;;;;;;;0.10;0.10;;;8.40;99.90;;;;;;4998180;28;20127;-65
2023/10/15 03:45:50;;;;;;;0.10;0.10;;;8.40;99.90;;;;;;4996507;28;20133;-65
2023/10/15 03:48:15;;;;;;;;;;;8.40;99.90;;;;;;5007309;28;20100;-66
2023/10/15 03:50:53;;;;;;;0.10;0.10;;;8.50;99.90;;;;;;4999275;28;19926;-65
2023/10/15 03:53:29;;;;;;;0.10;0.10;;;8.50;99.90;;;;;;5002230;28;20497;-65
2023/10/15 03:55:58;;;;;;;0.10;0.10;;;8.50;99.90;;;;;;5005169;28;20116;-65
2023/10/15 03:58:42;;;;;;;0.10;0.10;;;8.50;99.90;;;;;;5001225;28;20069;-66
2023/10/15 04:01:16;;;;;;;0.10;0.10;;;8.50;99.90;;;;;;5005875;28;20056;-65
2023/10/15 04:03:43;;;;;;;2.53;1.88;;;8.60;99.90;;;;;;5013732;28;20053;-66
2023/10/15 04:06:10;;;;;;;0.10;0.10;;;8.70;99.90;;;;;;5005748;28;20651;-66
2023/10/15 04:08:37;;;;;;;0.05;0.05;;;8.80;99.90;;;;;;5003074;28;20046;-66
2023/10/15 04:11:03;;;;;;;0.00;0.00;;;8.90;99.90;;;;;;5000335;28;20077;-65
2023/10/15 04:13:29;;;;;;;22.27;0.98;;;8.90;99.90;;;;;;5002677;28;20060;-65
2023/10/15 04:15:56;;;;;;;0.10;0.10;;;9.00;99.90;;;;;;4999165;28;20046;-65
2023/10/15 04:18:25;;;;;;;0.10;0.10;;;9.00;99.90;;;;;;4997782;28;20046;-66
2023/10/15 04:20:56;;;;;;;0.05;0.05;;;9.10;99.90;;;;;;5003507;28;20050;-65
2023/10/15 04:23:31;;;;;;;0.63;0.63;;;9.10;99.90;;;;;;5002019;28;20128;-65
2023/10/15 04:26:11;;;;;;;0.10;0.10;;;9.10;99.90;;;;;;5016676;28;20055;-65
2023/10/15 04:28:37;;;;;;;0.10;0.10;;;9.10;99.90;;;;;;5000488;28;20057;-65
2023/10/15 04:31:21;;;;;;;0.00;0.00;;;9.10;99.90;;;;;;4997668;28;20478;-66
2023/10/15 04:33:50;;;;;;;0.70;0.50;;;9.20;99.90;;;;;;4999289;28;20068;-65
2023/10/15 04:36:16;;;;;;;0.10;0.10;;;9.10;99.90;;;;;;4997457;28;20046;-65
2023/10/15 04:38:42;;;;;;;0.20;0.20;;;9.10;99.90;;;;;;5002428;28;20457;-66
2023/10/15 04:41:10;;;;;;;0.10;0.10;;;9.10;99.90;;;;;;5005260;28;20034;-65
2023/10/15 04:43:46;;;;;;;0.10;0.10;;;9.00;99.90;;;;;;4998057;28;20042;-65
2023/10/15 04:46:17;;;;;;;0.10;0.10;;;9.00;99.90;;;;;;5007783;28;20092;-66
2023/10/15 04:48:46;;;;;;;0.10;0.10;;;9.00;99.90;;;;;;5006621;28;20049;-65
2023/10/15 04:51:12;;;;;;;0.10;0.10;;;9.00;99.90;;;;;;4997451;28;20078;-65
2023/10/15 04:53:50;;;;;;;0.15;0.15;;;9.00;99.90;;;;;;5004421;28;20549;-65
2023/10/15 04:56:16;;;;;;;0.10;0.10;;;8.90;99.90;;;;;;4994003;28;20061;-65
2023/10/15 04:58:42;;;;;;;0.17;0.17;;;8.90;99.90;;;;;;5011555;28;20132;-65
2023/10/15 05:01:08;;;;;;;0.63;0.63;;;8.90;99.90;;;;;;5001533;28;20069;-65
2023/10/15 05:03:37;;;;;;;0.00;0.00;;;8.80;99.90;;;;;;4998479;28;20045;-66
2023/10/15 05:06:06;;;;;;;0.00;0.00;;;8.80;99.90;;;;;;4997975;28;20061;-65
2023/10/15 05:08:32;;;;;;;0.00;0.00;;;8.80;99.90;;;;;;4999225;28;20404;-66
2023/10/15 05:10:58;;;;;;;0.10;0.10;;;8.80;99.90;;;;;;4998596;28;20073;-66
2023/10/15 05:13:26;;;;;;;0.32;0.32;;;8.90;99.90;;;;;;4998041;28;20089;-66
2023/10/15 05:15:52;;;;;;;0.00;0.00;;;8.80;99.90;;;;;;5008542;28;20121;-66
2023/10/15 05:18:18;;;;;;;0.10;0.10;;;8.80;99.90;;;;;;5009563;28;20069;-66
2023/10/15 05:20:47;;;;;;;0.10;0.10;;;8.70;99.90;;;;;;5007361;28;20042;-66
2023/10/15 05:23:13;;;;;;;0.10;0.10;;;8.60;99.90;;;;;;5000246;28;20052;-66
2023/10/15 05:25:41;;;;;;;1.75;0.60;;;8.60;99.90;;;;;;5002062;28;20050;-66
2023/10/15 05:28:07;;;;;;;0.08;0.08;;;8.50;99.90;;;;;;4999310;28;20046;-66
2023/10/15 05:30:34;;;;;;;0.00;0.00;;;8.50;99.90;;;;;;5007271;28;20046;-66
2023/10/15 05:33:02;;;;;;;0.50;0.50;;;8.40;99.90;;;;;;5009778;28;20517;-66
2023/10/15 05:35:28;;;;;;;0.10;0.10;;;8.30;99.90;;;;;;5009672;28;20088;-66
2023/10/15 05:37:57;;;;;;;0.17;0.17;;;8.30;99.90;;;;;;5002571;28;20034;-66
2023/10/15 05:40:22;;;;;;;0.00;0.00;;;8.30;99.90;;;;;;5009350;28;20432;-66
2023/10/15 05:42:48;;;;;;;0.10;0.10;;;8.30;99.90;;;;;;5023029;28;20041;-66
2023/10/15 05:45:17;;;;;;;0.30;0.30;;;8.20;99.90;;;;;;5002090;28;20386;-66
2023/10/15 05:47:43;;;;;;;0.10;0.10;;;8.20;99.90;;;;;;5003014;28;20092;-65
2023/10/15 05:50:09;;;;;;;0.20;0.20;;;8.20;99.90;;;;;;5003147;28;20482;-66
2023/10/15 05:52:35;;;;;;;0.10;0.10;;;8.00;99.90;;;;;;5007770;28;20049;-66
2023/10/15 05:55:02;;;;;;;0.10;0.10;;;8.00;99.90;;;;;;5001695;28;20501;-66
2023/10/15 05:57:28;;;;;;;0.00;0.00;;;8.00;99.90;;;;;;5008876;28;20129;-66
2023/10/15 05:59:57;;;;;;;0.10;0.10;;;7.90;99.90;;;;;;5003013;28;20065;-66
2023/10/15 06:02:23;;;;;;;0.10;0.10;;;7.90;99.90;;;;;;4992771;28;20045;-66
2023/10/15 06:04:48;;;;;;;0.00;0.00;;;7.90;99.90;;;;;;5015321;28;20379;-66
2023/10/15 06:07:15;;;;;;;0.00;0.00;;;7.80;99.90;;;;;;5006809;28;20049;-66
2023/10/15 06:09:50;;;;;;;0.10;0.10;;;7.80;99.90;;;;;;5009277;28;20038;-66
2023/10/15 06:12:15;;;;;;;0.00;0.00;;;7.90;99.90;;;;;;5016279;28;20042;-66
2023/10/15 06:14:41;;;;;;;0.05;0.05;;;7.90;99.90;;;;;;5010852;28;20034;-65
2023/10/15 06:17:06;;;;;;;0.10;0.10;;;7.90;99.90;;;;;;5009936;28;20044;-66
2023/10/15 06:19:34;;;;;;;0.00;0.00;;;7.90;99.90;;;;;;5000908;28;20046;-66
2023/10/15 06:22:00;;;;;;;0.10;0.10;;;7.90;99.90;;;;;;5005077;28;20406;-66
2023/10/15 06:24:25;;;;;;;0.10;0.10;;;7.90;99.90;;;;;;5019647;28;20564;-66
2023/10/15 06:26:51;;;;;;;0.00;0.00;;;7.90;99.90;;;;;;5001360;28;20049;-65
2023/10/15 06:29:16;;;;;;;0.10;0.10;;;7.90;99.90;;;;;;4994690;28;20447;-66
2023/10/15 06:31:42;;;;;;;0.03;0.03;;;8.00;99.90;;;;;;5007726;28;20096;-65
2023/10/15 06:34:08;;;;;;;0.10;0.10;;;8.20;99.90;;;;;;5004626;28;20072;-65
2023/10/15 06:36:34;;;;;;;0.00;0.00;;;8.30;99.90;;;;;;4997052;28;20064;-65
2023/10/15 06:39:00;;;;;;;0.10;0.10;;;8.40;99.90;;;;;;4998139;28;20042;-65
2023/10/15 06:41:26;;;;;;;0.10;0.10;;;8.50;99.90;;;;;;5003642;28;20500;-65
2023/10/15 06:43:52;;;;;;;0.10;0.10;;;8.50;99.90;;;;;;5003888;28;20050;-65
2023/10/15 06:46:18;;;;;;;0.52;0.52;;;8.50;99.90;;;;;;5004017;28;20038;-65
2023/10/15 06:48:44;;;;;;;0.30;0.30;;;8.60;99.90;;;;;;5008702;28;20440;-65
2023/10/15 06:51:10;;;;;;;0.10;0.10;;;8.60;99.90;;;;;;5018597;28;20046;-65
2023/10/15 06:53:36;;;;;;;0.10;0.10;;;8.60;99.90;;;;;;5009635;28;20168;-65
2023/10/15 06:56:06;;;;;;;0.88;0.85;;;8.60;99.90;;;;;;5008461;28;20124;-65
2023/10/15 06:58:33;;;;;;;1.20;1.10;;;8.60;99.90;;;;;;4998058;28;20082;-65
2023/10/15 07:00:59;;;;;;;0.35;0.28;;;8.60;99.90;;;;;;4998152;28;20041;-65
2023/10/15 07:03:25;;;;;;;0.80;0.75;;;8.60;99.90;;;;;;5004777;28;20104;-65
2023/10/15 07:05:51;;;;;;;0.30;0.30;;;8.50;99.90;;;;;;5004251;28;20391;-65
2023/10/15 07:08:16;;;;;;;0.10;0.10;;;8.50;99.90;;;;;;5000955;28;20042;-66
2023/10/15 07:10:43;;;;;;;0.10;0.10;;;8.40;99.90;;;;;;4998262;28;20422;-65
2023/10/15 07:13:10;;;;;;;0.10;0.10;;;8.40;99.90;;;;;;5003204;28;20112;-65
2023/10/15 07:15:37;;;;;;;0.00;0.00;;;8.40;99.90;;;;;;4997818;28;20154;-65
2023/10/15 07:18:03;;;;;;;0.10;0.10;;;8.40;99.90;;;;;;5006545;28;20046;-65
2023/10/15 07:20:30;;;;;;;0.00;0.00;;;8.50;99.90;;;;;;5004918;28;20161;-65
2023/10/15 07:22:57;;;;;;;0.80;0.80;;;8.50;99.90;;;;;;4997108;28;20073;-65
2023/10/15 07:25:27;;;;;;;0.00;0.00;;;8.50;99.90;;;;;;4999400;28;20046;-67
2023/10/15 07:27:56;;;;;;;0.00;0.00;;;8.40;99.90;;;;;;5001459;28;20609;-65
2023/10/15 07:30:22;;;;;;;0.10;0.10;;;8.40;99.90;;;;;;5005437;28;20168;-65
2023/10/15 07:32:50;;;;;;;0.10;0.10;;;8.40;99.90;;;;;;5001044;28;20053;-65
2023/10/15 07:35:16;;;;;;;0.00;0.00;;;8.50;99.90;;;;;;4997637;28;20069;-65
2023/10/15 07:37:43;;;;;;;0.00;0.00;;;8.70;99.90;;;;;;5000766;28;20570;-65
2023/10/15 07:40:21;;;;;;;0.10;0.10;;;8.80;99.90;;;;;;5000566;28;20425;-65
2023/10/15 07:42:52;;;;;;;0.10;0.10;;;9.00;99.90;;;;;;4995230;28;20050;-65
2023/10/15 07:45:18;;;;;;;0.10;0.10;;;9.10;99.90;;;;;;5000867;28;20056;-65
2023/10/15 07:47:45;;;;;;;0.10;0.10;;;9.20;99.90;;;;;;5003829;28;20445;-65
2023/10/15 07:50:21;;;;;;;0.20;0.20;;;9.30;99.90;;;;;;4999687;28;20101;-65
2023/10/15 07:52:46;;;;;;;0.13;0.13;;;9.40;99.90;;;;;;4997244;28;20042;-65
2023/10/15 07:55:13;;;;;;;0.10;0.10;;;9.20;99.90;;;;;;4996285;28;20064;-65
2023/10/15 07:57:39;;;;;;;0.10;0.10;;;9.00;99.90;;;;;;4999783;28;20050;-65
2023/10/15 08:00:14;;;;;;;0.00;0.00;;;8.90;99.90;;;;;;5013278;28;20060;-65
2023/10/15 08:02:45;;;;;;;0.08;0.08;;;8.90;99.90;;;;;;5000817;28;20077;-66
2023/10/15 08:05:11;;;;;;;0.00;0.00;;;8.80;99.90;;;;;;5007891;28;20465;-65
2023/10/15 08:07:38;;;;;;;0.00;0.00;;;8.70;99.90;;;;;;5000796;28;20120;-65
2023/10/15 08:10:04;;;;;;;0.45;0.45;;;8.70;99.90;;;;;;4998979;28;20078;-65
2023/10/15 08:12:31;;;;;;;0.00;0.00;;;8.50;99.90;;;;;;4995433;28;20089;-65
2023/10/15 08:14:57;;;;;;;0.10;0.10;;;8.60;99.90;;;;;;5003216;28;20038;-65
2023/10/15 08:17:23;;;;;;;0.10;0.10;;;8.50;99.90;;;;;;4997686;28;20395;-65
2023/10/15 08:19:50;;;;;;;0.10;0.10;;;8.50;99.90;;;;;;5003790;28;20551;-65
2023/10/15 08:22:15;;;;;;;0.10;0.10;;;8.60;99.90;;;;;;5003778;28;20050;-65
2023/10/15 08:24:41;;;;;;;0.10;0.10;;;8.50;99.90;;;;;;5001718;28;20479;-65
2023/10/15 08:27:07;;;;;;;0.10;0.10;;;8.50;99.90;;;;;;4994358;28;20113;-65
2023/10/15 08:29:32;;;;;;;0.00;0.00;;;8.60;99.90;;;;;;5002303;28;20521;-65
2023/10/15 08:31:58;;;;;;;0.10;0.10;;;8.70;99.90;;;;;;5002460;28;20073;-65
2023/10/15 08:34:24;;;;;;;0.00;0.00;;;8.90;99.90;;;;;;5002481;28;20045;-65
2023/10/15 08:36:50;;;;;;;0.10;0.10;;;9.00;99.90;;;;;;4995996;28;20226;-66
2023/10/15 08:39:16;;;;;;;0.00;0.00;;;9.10;99.90;;;;;;4997332;28;20038;-65
2023/10/15 08:41:43;;;;;;;0.10;0.10;;;9.20;99.90;;;;;;4999586;28;20046;-65
2023/10/15 08:44:10;;;;;;;0.30;0.30;;;9.20;99.90;;;;;;5001270;28;20077;-65
2023/10/15 08:46:40;;;;;;;0.03;0.03;;;9.30;99.90;;;;;;5001992;28;20050;-65
2023/10/15 08:49:08;;;;;;;0.00;0.00;;;9.40;99.90;;;;;;4997134;28;20137;-65
2023/10/15 08:51:37;;;;;;;0.00;0.00;;;9.50;99.90;;;;;;4998503;28;20550;-65
2023/10/15 08:54:04;;;;;;;0.10;0.10;;;9.60;99.90;;;;;;5001573;28;20624;-65
2023/10/15 08:56:33;;;;;;;0.10;0.10;;;9.70;99.90;;;;;;5007705;28;20042;-65
2023/10/15 08:59:00;;;;;;;0.10;0.10;;;9.90;99.90;;;;;;4996416;28;20919;-65
2023/10/15 09:01:26;;;;;;;0.03;0.03;;;10.00;99.90;;;;;;5000514;28;20049;-65
2023/10/15 09:03:54;;;;;;;0.00;0.00;;;10.20;99.90;;;;;;5005333;28;20504;-65
2023/10/15 09:06:20;;;;;;;0.00;0.00;;;10.30;99.90;;;;;;5004886;28;20538;-65
2023/10/15 09:08:46;;;;;;;0.00;0.00;;;10.30;99.90;;;;;;5000126;28;20130;-65
2023/10/15 09:11:12;;;;;;;0.10;0.10;;;10.30;99.90;;;;;;5009661;28;20404;-66
2023/10/15 09:13:38;;;;;;;0.10;0.10;;;10.10;99.90;;;;;;5018762;28;20096;-65
2023/10/15 09:16:06;;;;;;;0.10;0.10;;;10.00;99.90;;;;;;4995190;28;20046;-64
2023/10/15 09:18:35;;;;;;;0.10;0.10;;;10.00;99.90;;;;;;5001291;28;20041;-65
2023/10/15 09:21:05;;;;;;;0.30;0.30;;;9.90;99.90;;;;;;5006964;28;20046;-65
2023/10/15 09:23:36;;;;;;;0.50;0.40;;;10.60;99.90;;;;;;4998782;28;20429;-66
2023/10/15 09:26:03;;;;;;;1.10;0.80;;;11.40;99.90;;;;;;5005097;28;20049;-66
2023/10/15 09:28:30;;;;;;;0.57;0.57;;;12.20;99.90;;;;;;5002804;28;20108;-66
2023/10/15 09:31:09;;;;;;;1.17;0.65;;;12.90;99.90;;;;;;5002289;28;20042;-66
2023/10/15 09:33:36;;;;;;;0.00;0.00;;;13.40;99.90;;;;;;5005689;28;20141;-65
2023/10/15 09:36:02;;;;;;;0.10;0.10;;;13.70;99.90;;;;;;5000352;28;20133;-66
2023/10/15 09:38:31;;;;;;;3.53;0.90;;;14.20;99.90;;;;;;5000111;28;20034;-66
2023/10/15 09:40:58;;;;;;;0.25;0.25;;;13.90;99.90;;;;;;5002411;28;20042;-66
2023/10/15 09:43:25;;;;;;;0.10;0.10;;;13.30;99.90;;;;;;5012303;28;20099;-66
2023/10/15 09:45:54;;;;;;;0.25;0.25;;;12.80;99.90;;;;;;5005285;28;20501;-66
2023/10/15 09:48:24;;;;;;;0.10;0.10;;;12.30;99.90;;;;;;5009844;28;20034;-66
2023/10/15 09:50:56;;;;;;;0.30;0.30;;;12.20;99.90;;;;;;5005515;28;20058;-66
2023/10/15 09:53:24;;;;;;;0.00;0.00;;;12.20;99.90;;;;;;4998981;28;20426;-67
2023/10/15 09:55:51;;;;;;;0.00;0.00;;;12.20;99.90;;;;;;4999226;28;20128;-67
2023/10/15 09:58:17;;;;;;;0.00;0.00;;;12.20;99.90;;;;;;5003393;28;20046;-66
2023/10/15 10:03:30;;;;;;;0.10;0.10;;;11.80;99.90;;;;;;5001340;28;20057;-67
2023/10/15 10:06:09;;;;;;;0.03;0.03;;;11.50;99.90;;;;;;5006303;28;20061;-67
2023/10/15 10:09:04;;;;;;;0.00;0.00;;;11.40;99.90;;;;;;5004044;28;20046;-67
2023/10/15 10:11:39;;;;;;;0.35;0.35;;;11.60;99.90;;;;;;5004849;28;20062;-66
2023/10/15 10:14:44;;;;;;;0.10;0.10;;;11.40;99.90;;;;;;4999756;28;20509;-66
2023/10/15 10:17:12;;;;;;;0.10;0.10;;;11.30;99.90;;;;;;5001518;28;20394;-66
2023/10/15 10:19:40;;;;;;;0.38;0.38;;;11.20;99.90;;;;;;5007007;28;20406;-66
2023/10/15 10:22:26;;;;;;;0.10;0.10;;;11.20;99.90;;;;;;5001250;28;20042;-66
2023/10/15 10:24:58;;;;;;;0.20;0.20;;;11.20;99.90;;;;;;4998902;28;20077;-66
2023/10/15 10:27:25;;;;;;;0.10;0.10;;;11.10;99.90;;;;;;5014246;28;20052;-66
2023/10/15 10:29:52;;;;;;;0.10;0.10;;;11.20;99.90;;;;;;5001074;28;20425;-66
2023/10/15 10:32:19;;;;;;;2.92;1.00;;;11.30;99.90;;;;;;5005121;28;20049;-66
2023/10/15 10:34:46;;;;;;;0.10;0.10;;;11.30;99.90;;;;;;5000209;28;20089;-66
2023/10/15 10:37:22;;;;;;;0.10;0.10;;;11.40;99.90;;;;;;4995792;28;20069;-66
2023/10/15 10:39:49;;;;;;;0.20;0.20;;;11.40;99.90;;;;;;5002059;28;20045;-66
2023/10/15 10:42:26;;;;;;;0.85;0.85;;;11.30;99.90;;;;;;5003081;28;20046;-66
2023/10/15 10:44:53;;;;;;;0.10;0.10;;;11.30;99.90;;;;;;5013311;28;20058;-66
2023/10/15 10:47:21;;;;;;;0.10;0.10;;;11.00;99.90;;;;;;5001254;28;20556;-66
2023/10/15 10:49:56;;;;;;;0.20;0.20;;;11.00;99.90;;;;;;5000423;28;20065;-66
2023/10/15 10:52:29;;;;;;;0.10;0.10;;;11.10;99.90;;;;;;5004500;28;20713;-66
2023/10/15 10:55:16;;;;;;;0.10;0.10;;;11.00;99.90;;;;;;4997939;28;20446;-66
2023/10/15 10:57:42;;;;;;;0.10;0.10;;;11.10;99.90;;;;;;5003923;28;20038;-66
2023/10/15 11:00:12;;;;;;;0.05;0.05;;;11.10;99.90;;;;;;5000409;28;20478;-66
2023/10/15 11:02:37;;;;;;;0.10;0.10;;;11.30;99.90;;;;;;5004674;28;20053;-66
2023/10/15 11:05:04;;;;;;;0.00;0.00;;;11.40;99.90;;;;;;5011077;28;20042;-66
2023/10/15 11:07:36;;;;;;;0.00;0.00;;;11.50;99.90;;;;;;5010313;28;20037;-66
2023/10/15 11:10:06;;;;;;;0.00;0.00;;;11.70;99.90;;;;;;4994612;28;20133;-66
2023/10/15 11:12:32;;;;;;;0.20;0.20;;;12.10;99.90;;;;;;5008636;28;20073;-66
2023/10/15 11:14:57;;;;;;;0.28;0.28;;;12.30;99.90;;;;;;5004173;28;20135;-66
2023/10/15 11:17:23;;;;;;;0.50;0.50;;;12.50;99.90;;;;;;5006263;28;20839;-66
2023/10/15 11:19:49;;;;;;;0.03;0.03;;;12.80;99.90;;;;;;5001984;28;20367;-66
2023/10/15 11:22:15;;;;;;;0.00;0.00;;;13.20;99.90;;;;;;5006118;28;20177;-66
2023/10/15 11:24:43;;;;;;;1.98;0.65;;;13.40;99.90;;;;;;5006093;28;20137;-66
2023/10/15 11:27:12;;;;;;;0.30;0.30;;;13.80;99.90;;;;;;5000550;28;20038;-66
2023/10/15 11:29:37;;;;;;;0.10;0.10;;;14.10;99.90;;;;;;5002031;28;20212;-66
2023/10/15 11:32:06;;;;;;;0.10;0.10;;;14.50;99.90;;;;;;5001021;28;20121;-65
2023/10/15 11:34:33;;;;;;;0.00;0.00;;;14.80;99.90;;;;;;4999190;28;20042;-66
2023/10/15 11:37:01;;;;;;;0.10;0.10;;;14.70;99.90;;;;;;5004141;28;20069;-66
2023/10/15 11:39:37;;;;;;;0.00;0.00;;;14.30;99.90;;;;;;4999327;28;20612;-66
2023/10/15 11:42:04;;;;;;;0.22;0.22;;;14.10;99.90;;;;;;5006197;28;20050;-66
2023/10/15 11:44:33;;;;;;;1.23;1.13;;;13.80;99.90;;;;;;4999399;28;20065;-65
2023/10/15 11:47:08;;;;;;;0.10;0.10;;;13.90;99.90;;;;;;5004870;28;20050;-65
2023/10/15 11:49:38;;;;;;;0.10;0.10;;;14.40;99.90;;;;;;4995426;28;20057;-65
2023/10/15 11:52:05;;;;;;;0.10;0.10;;;15.00;99.90;;;;;;4999973;28;20077;-65
2023/10/15 11:54:32;;;;;;;0.00;0.00;;;15.30;99.90;;;;;;5002728;28;20053;-65
2023/10/15 11:57:04;;;;;;;0.03;0.03;;;15.60;99.90;;;;;;5005955;28;20041;-66
2023/10/15 11:59:31;;;;;;;0.05;0.05;;;15.80;99.90;;;;;;4999524;28;20030;-66
2023/10/15 12:02:00;;;;;;;0.10;0.10;;;16.10;99.90;;;;;;4996548;28;20513;-66
2023/10/15 12:04:26;;;;;;;0.00;0.00;;;16.30;99.90;;;;;;5002003;28;20140;-65
2023/10/15 12:06:52;;;;;;;0.28;0.28;;;16.40;99.90;;;;;;4999315;28;20060;-66
2023/10/15 12:09:24;;;;;;;0.10;0.10;;;16.60;99.90;;;;;;5006975;28;20370;-65
2023/10/15 12:11:51;;;;;;;0.00;0.00;;;16.10;99.90;;;;;;5003481;28;20050;-66
2023/10/15 12:14:17;;;;;;;0.10;0.10;;;16.20;99.90;;;;;;5004832;28;20056;-66
2023/10/15 12:16:44;;;;;;;1.42;1.08;;;16.40;99.90;;;;;;4996589;28;20076;-66
2023/10/15 12:19:10;;;;;;;0.00;0.00;;;15.60;99.90;;;;;;4996895;28;20505;-66
2023/10/15 12:21:37;;;;;;;0.25;0.25;;;15.00;99.90;;;;;;5004860;28;20104;-66
2023/10/15 12:24:04;;;;;;;0.00;0.00;;;14.70;99.90;;;;;;5003696;28;20052;-66
2023/10/15 12:26:29;;;;;;;0.10;0.10;;;14.30;99.90;;;;;;4998605;28;20046;-66
2023/10/15 12:28:55;;;;;;;0.00;0.00;;;13.80;99.90;;;;;;5004670;28;20041;-66
2023/10/15 12:31:20;;;;;;;0.00;0.00;;;13.90;99.90;;;;;;5005136;28;20049;-66
2023/10/15 12:33:46;;;;;;;0.10;0.10;;;13.80;99.90;;;;;;4995427;28;20397;-66
2023/10/15 12:36:13;;;;;;;0.10;0.10;;;13.70;99.90;;;;;;5001909;28;20050;-66
2023/10/15 12:38:39;;;;;;;0.00;0.00;;;13.40;99.90;;;;;;4993844;28;20045;-66
2023/10/15 12:41:05;;;;;;;0.00;0.00;;;13.30;99.90;;;;;;5002262;28;20520;-66
2023/10/15 12:43:32;;;;;;;0.10;0.10;;;13.40;99.90;;;;;;5007916;28;20042;-65
2023/10/15 12:45:57;;;;;;;0.17;0.17;;;14.00;99.90;;;;;;4990529;28;20035;-65
2023/10/15 12:48:23;;;;;;;0.00;0.00;;;14.90;99.90;;;;;;4993824;28;20097;-65
2023/10/15 12:50:51;;;;;;;1.98;0.30;;;14.90;99.90;;;;;;4999736;28;20140;-66
2023/10/15 12:53:17;;;;;;;0.00;0.00;;;14.30;99.90;;;;;;5000834;28;20034;-66
2023/10/15 12:55:43;;;;;;;2.25;1.55;;;13.70;99.90;;;;;;5003619;28;20400;-65
2023/10/15 12:58:10;;;;;;;0.00;0.00;;;13.20;99.90;;;;;;5004064;28;20049;-66
2023/10/15 13:00:39;;;;;;;0.00;0.00;;;12.70;99.90;;;;;;5000566;28;20044;-65
2023/10/15 13:03:05;;;;;;;0.00;0.00;;;12.50;99.90;;;;;;4996067;28;20046;-65
2023/10/15 13:05:31;;;;;;;0.10;0.10;;;12.20;99.90;;;;;;5004889;28;20046;-65
2023/10/15 13:07:57;;;;;;;0.10;0.10;;;12.20;99.90;;;;;;5004752;28;20500;-65
2023/10/15 13:10:23;;;;;;;0.00;0.00;;;12.10;99.90;;;;;;4997589;28;20387;-65
2023/10/15 13:12:50;;;;;;;0.10;0.10;;;12.10;99.90;;;;;;4998595;28;20504;-65
2023/10/15 13:15:18;;;;;;;0.10;0.10;;;11.80;99.90;;;;;;5005911;28;20421;-65
2023/10/15 13:17:48;;;;;;;0.10;0.10;;;11.80;99.90;;;;;;4995089;28;20490;-65
2023/10/15 13:20:17;;;;;;;0.00;0.00;;;11.70;99.90;;;;;;5003343;28;20045;-65
2023/10/15 13:22:43;;;;;;;0.95;0.47;;;11.90;99.90;;;;;;5004020;28;20042;-65